createdAt,value
2023-03-27T00:00:06.810Z,47.53
2023-03-27T00:01:06.789Z,47.53
2023-03-27T00:02:06.797Z,47.53
2023-03-27T00:03:06.979Z,47.53
2023-03-27T00:04:06.844Z,47.53
2023-03-27T00:05:06.757Z,47.53
2023-03-27T00:06:06.742Z,47.53
2023-03-27T00:07:06.743Z,47.53
2023-03-27T00:08:06.731Z,47.53
2023-03-27T00:09:06.704Z,47.53
2023-03-27T00:10:06.703Z,47.43
2023-03-27T00:11:06.687Z,47.43
2023-03-27T00:12:06.695Z,47.53
2023-03-27T00:13:06.665Z,47.53
2023-03-27T00:14:06.664Z,47.53
2023-03-27T00:15:06.650Z,47.53
2023-03-27T00:16:06.647Z,47.43
2023-03-27T00:17:06.628Z,47.53
2023-03-27T00:18:06.638Z,47.43
2023-03-27T00:19:06.600Z,47.43
2023-03-27T00:20:06.593Z,47.43
2023-03-27T00:21:06.704Z,47.43
2023-03-27T00:22:13.048Z,47.43
2023-03-27T00:23:06.576Z,47.43
2023-03-27T00:24:06.549Z,47.43
2023-03-27T00:25:06.537Z,47.43
2023-03-27T00:26:06.529Z,47.43
2023-03-27T00:27:06.522Z,47.43
2023-03-27T00:28:06.500Z,47.43
2023-03-27T00:29:06.511Z,47.43
2023-03-27T00:30:06.477Z,47.43
2023-03-27T00:31:06.530Z,47.43
2023-03-27T00:32:06.473Z,47.43
2023-03-27T00:33:06.508Z,47.43
2023-03-27T00:34:06.452Z,47.43
2023-03-27T00:35:06.444Z,47.43
2023-03-27T00:36:06.562Z,47.43
2023-03-27T00:37:06.419Z,47.43
2023-03-27T00:38:06.409Z,47.43
2023-03-27T00:39:06.389Z,47.43
2023-03-27T00:40:06.392Z,47.43
2023-03-27T00:41:06.444Z,47.43
2023-03-27T00:42:06.366Z,47.43
2023-03-27T00:43:06.347Z,47.43
2023-03-27T00:44:06.340Z,47.43
2023-03-27T00:45:06.325Z,47.43
2023-03-27T00:46:06.376Z,47.43
2023-03-27T00:47:06.321Z,47.43
2023-03-27T00:48:06.362Z,47.43
2023-03-27T00:49:06.298Z,47.43
2023-03-27T00:50:06.266Z,47.43
2023-03-27T00:51:06.279Z,47.43
2023-03-27T00:52:06.247Z,47.43
2023-03-27T00:53:06.241Z,47.43
2023-03-27T00:54:06.246Z,47.33
2023-03-27T00:55:06.218Z,47.43
2023-03-27T00:56:06.204Z,47.33
2023-03-27T00:57:06.244Z,47.33
2023-03-27T00:58:06.183Z,47.43
2023-03-27T00:59:06.194Z,47.43
2023-03-27T01:00:07.629Z,47.33
2023-03-27T01:01:06.191Z,47.33
2023-03-27T01:02:06.142Z,47.33
2023-03-27T01:03:06.265Z,47.33
2023-03-27T01:04:06.119Z,47.33
2023-03-27T01:05:06.121Z,47.33
2023-03-27T01:06:06.105Z,47.33
2023-03-27T01:07:06.088Z,47.33
2023-03-27T01:08:06.084Z,47.33
2023-03-27T01:09:06.071Z,47.33
2023-03-27T01:10:06.052Z,47.33
2023-03-27T01:11:06.045Z,47.33
2023-03-27T01:12:06.034Z,47.33
2023-03-27T01:13:06.027Z,47.33
2023-03-27T01:14:06.011Z,47.33
2023-03-27T01:15:05.997Z,47.33
2023-03-27T01:16:06.031Z,47.33
2023-03-27T01:17:05.991Z,47.33
2023-03-27T01:18:05.998Z,47.33
2023-03-27T01:19:05.987Z,47.33
2023-03-27T01:20:05.950Z,47.33
2023-03-27T01:21:05.957Z,47.33
2023-03-27T01:22:05.919Z,47.33
2023-03-27T01:23:05.925Z,47.33
2023-03-27T01:24:05.898Z,47.33
2023-03-27T01:25:05.904Z,47.33
2023-03-27T01:26:05.945Z,47.33
2023-03-27T01:27:05.871Z,47.33
2023-03-27T01:28:05.864Z,47.33
2023-03-27T01:29:05.862Z,47.33
2023-03-27T01:30:05.843Z,47.33
2023-03-27T01:31:05.844Z,47.33
2023-03-27T01:32:05.812Z,47.23
2023-03-27T01:33:05.863Z,47.33
2023-03-27T01:34:05.806Z,47.23
2023-03-27T01:35:05.801Z,47.33
2023-03-27T01:36:05.782Z,47.23
2023-03-27T01:37:05.765Z,47.33
2023-03-27T01:38:05.754Z,47.33
2023-03-27T01:39:05.748Z,47.23
2023-03-27T01:40:05.734Z,47.33
2023-03-27T01:41:05.743Z,47.33
2023-03-27T01:42:05.706Z,47.23
2023-03-27T01:43:05.711Z,47.23
2023-03-27T01:44:05.694Z,47.23
2023-03-27T01:45:05.690Z,47.23
2023-03-27T01:46:05.666Z,47.23
2023-03-27T01:47:06.316Z,47.23
2023-03-27T01:48:05.720Z,47.33
2023-03-27T01:49:05.654Z,47.23
2023-03-27T01:50:05.631Z,47.23
2023-03-27T01:51:05.630Z,47.23
2023-03-27T01:52:05.604Z,47.23
2023-03-27T01:53:05.598Z,47.23
2023-03-27T01:54:05.587Z,47.23
2023-03-27T01:55:05.577Z,47.23
2023-03-27T01:56:05.573Z,47.23
2023-03-27T01:57:05.634Z,47.23
2023-03-27T01:58:05.536Z,47.23
2023-03-27T01:59:05.540Z,47.23
2023-03-27T02:00:17.410Z,47.23
2023-03-27T02:01:05.787Z,47.23
2023-03-27T02:02:05.500Z,47.23
2023-03-27T02:03:05.514Z,47.23
2023-03-27T02:04:05.478Z,47.23
2023-03-27T02:05:05.518Z,47.23
2023-03-27T02:06:05.460Z,47.23
2023-03-27T02:07:05.458Z,47.23
2023-03-27T02:08:05.445Z,47.23
2023-03-27T02:09:05.432Z,47.23
2023-03-27T02:10:05.411Z,47.23
2023-03-27T02:11:05.406Z,47.23
2023-03-27T02:12:05.395Z,47.23
2023-03-27T02:13:05.382Z,47.23
2023-03-27T02:14:05.384Z,47.23
2023-03-27T02:15:23.629Z,47.23
2023-03-27T02:16:05.408Z,47.23
2023-03-27T02:17:05.357Z,47.23
2023-03-27T02:18:05.598Z,47.23
2023-03-27T02:19:05.336Z,47.23
2023-03-27T02:20:05.316Z,47.23
2023-03-27T02:21:05.298Z,47.23
2023-03-27T02:22:05.299Z,47.23
2023-03-27T02:23:05.297Z,47.23
2023-03-27T02:24:05.267Z,47.23
2023-03-27T02:25:05.254Z,47.23
2023-03-27T02:26:05.242Z,47.13
2023-03-27T02:27:05.243Z,47.13
2023-03-27T02:28:05.226Z,47.23
2023-03-27T02:29:05.214Z,47.13
2023-03-27T02:30:05.196Z,47.13
2023-03-27T02:31:06.171Z,47.13
2023-03-27T02:32:05.254Z,47.13
2023-03-27T02:33:05.216Z,47.13
2023-03-27T02:34:05.163Z,47.13
2023-03-27T02:35:05.206Z,47.13
2023-03-27T02:36:05.166Z,47.13
2023-03-27T02:37:05.158Z,47.13
2023-03-27T02:38:05.110Z,47.13
2023-03-27T02:39:05.105Z,47.13
2023-03-27T02:40:05.099Z,47.13
2023-03-27T02:41:05.103Z,47.13
2023-03-27T02:42:05.074Z,47.13
2023-03-27T02:43:05.064Z,47.13
2023-03-27T02:44:05.049Z,47.13
2023-03-27T02:45:05.091Z,47.13
2023-03-27T02:46:05.136Z,47.13
2023-03-27T02:47:05.840Z,47.13
2023-03-27T02:48:05.078Z,47.13
2023-03-27T02:49:05.007Z,47.13
2023-03-27T02:50:05.009Z,47.13
2023-03-27T02:51:04.990Z,47.13
2023-03-27T02:52:04.966Z,47.13
2023-03-27T02:53:04.985Z,47.13
2023-03-27T02:54:04.941Z,47.13
2023-03-27T02:55:04.949Z,47.13
2023-03-27T02:56:04.920Z,47.13
2023-03-27T02:57:04.941Z,47.13
2023-03-27T02:58:04.906Z,47.13
2023-03-27T02:59:04.923Z,47.13
2023-03-27T03:00:04.878Z,47.13
2023-03-27T03:01:04.888Z,47.13
2023-03-27T03:02:04.884Z,47.13
2023-03-27T03:03:04.992Z,47.13
2023-03-27T03:04:04.861Z,47.13
2023-03-27T03:05:04.856Z,47.13
2023-03-27T03:06:04.841Z,47.13
2023-03-27T03:07:04.809Z,47.13
2023-03-27T03:08:04.977Z,47.13
2023-03-27T03:09:04.817Z,47.13
2023-03-27T03:10:04.777Z,47.13
2023-03-27T03:11:04.781Z,47.13
2023-03-27T03:12:04.751Z,47.13
2023-03-27T03:13:04.749Z,47.13
2023-03-27T03:14:04.736Z,47.13
2023-03-27T03:15:04.726Z,47.13
2023-03-27T03:16:04.718Z,47.13
2023-03-27T03:17:04.700Z,47.13
2023-03-27T03:18:04.765Z,47.13
2023-03-27T03:19:04.684Z,47.13
2023-03-27T03:20:05.254Z,47.13
2023-03-27T03:21:04.696Z,47.13
2023-03-27T03:22:04.662Z,47.13
2023-03-27T03:23:04.645Z,47.13
2023-03-27T03:24:04.623Z,47.13
2023-03-27T03:25:04.639Z,47.13
2023-03-27T03:26:04.611Z,47.13
2023-03-27T03:27:04.622Z,47.03
2023-03-27T03:28:04.577Z,47.03
2023-03-27T03:29:04.600Z,47.13
2023-03-27T03:30:04.611Z,47.13
2023-03-27T03:31:04.569Z,47.03
2023-03-27T03:32:04.541Z,47.03
2023-03-27T03:33:04.574Z,47.03
2023-03-27T03:34:04.615Z,47.03
2023-03-27T03:35:04.507Z,47.03
2023-03-27T03:36:04.529Z,47.03
2023-03-27T03:37:05.367Z,47.03
2023-03-27T03:38:04.500Z,47.03
2023-03-27T03:39:04.475Z,47.03
2023-03-27T03:40:04.468Z,47.03
2023-03-27T03:41:04.444Z,47.03
2023-03-27T03:42:04.435Z,47.03
2023-03-27T03:43:04.429Z,47.03
2023-03-27T03:44:04.405Z,47.13
2023-03-27T03:45:04.417Z,47.03
2023-03-27T03:46:04.436Z,47.03
2023-03-27T03:47:04.882Z,47.03
2023-03-27T03:48:04.396Z,47.03
2023-03-27T03:49:04.360Z,47.03
2023-03-27T03:50:04.344Z,47.03
2023-03-27T03:51:04.346Z,47.03
2023-03-27T03:52:04.962Z,47.03
2023-03-27T03:53:04.323Z,47.03
2023-03-27T03:54:04.310Z,47.03
2023-03-27T03:55:04.303Z,47.03
2023-03-27T03:56:04.283Z,47.03
2023-03-27T03:57:04.290Z,47.03
2023-03-27T03:58:04.268Z,47.03
2023-03-27T03:59:04.249Z,46.93
2023-03-27T04:00:04.246Z,46.93
2023-03-27T04:01:04.247Z,46.93
2023-03-27T04:02:04.221Z,46.93
2023-03-27T04:03:04.254Z,46.93
2023-03-27T04:04:04.187Z,46.83
2023-03-27T04:05:08.422Z,46.81
2023-03-27T04:06:04.188Z,46.83
2023-03-27T04:07:04.162Z,46.81
2023-03-27T04:08:04.142Z,46.81
2023-03-27T04:09:04.139Z,46.81
2023-03-27T04:10:04.131Z,46.81
2023-03-27T04:11:04.117Z,46.81
2023-03-27T04:12:04.110Z,46.81
2023-03-27T04:13:04.089Z,46.81
2023-03-27T04:14:04.078Z,46.81
2023-03-27T04:15:04.089Z,46.81
2023-03-27T04:16:04.080Z,46.70
2023-03-27T04:17:04.069Z,46.81
2023-03-27T04:18:04.127Z,46.70
2023-03-27T04:19:04.029Z,46.70
2023-03-27T04:20:04.022Z,46.70
2023-03-27T04:21:04.023Z,46.70
2023-03-27T04:22:03.998Z,46.70
2023-03-27T04:23:04.004Z,46.70
2023-03-27T04:24:03.983Z,46.70
2023-03-27T04:25:03.962Z,46.70
2023-03-27T04:26:04.129Z,46.70
2023-03-27T04:27:03.968Z,46.70
2023-03-27T04:28:03.947Z,46.81
2023-03-27T04:29:03.926Z,46.81
2023-03-27T04:30:03.919Z,46.81
2023-03-27T04:31:03.933Z,46.81
2023-03-27T04:32:03.902Z,46.81
2023-03-27T04:33:03.918Z,46.81
2023-03-27T04:34:03.884Z,46.81
2023-03-27T04:35:03.863Z,46.81
2023-03-27T04:36:06.151Z,46.81
2023-03-27T04:37:03.839Z,46.81
2023-03-27T04:38:03.834Z,46.81
2023-03-27T04:39:03.836Z,46.91
2023-03-27T04:40:03.822Z,46.91
2023-03-27T04:41:03.814Z,46.81
2023-03-27T04:42:04.380Z,46.91
2023-03-27T04:43:03.798Z,46.91
2023-03-27T04:44:03.779Z,46.91
2023-03-27T04:45:03.756Z,46.91
2023-03-27T04:46:03.750Z,46.91
2023-03-27T04:47:05.808Z,46.91
2023-03-27T04:48:03.828Z,46.91
2023-03-27T04:49:03.710Z,46.91
2023-03-27T04:50:03.707Z,46.91
2023-03-27T04:51:03.689Z,46.91
2023-03-27T04:52:03.693Z,46.91
2023-03-27T04:53:03.681Z,46.91
2023-03-27T04:54:03.671Z,46.91
2023-03-27T04:55:03.660Z,46.91
2023-03-27T04:56:03.649Z,46.91
2023-03-27T04:57:03.807Z,46.91
2023-03-27T04:58:03.634Z,46.91
2023-03-27T04:59:03.627Z,46.91
2023-03-27T05:00:03.605Z,46.91
2023-03-27T05:01:03.670Z,47.00
2023-03-27T05:02:03.583Z,47.00
2023-03-27T05:03:03.743Z,47.00
2023-03-27T05:04:03.678Z,47.00
2023-03-27T05:05:03.540Z,47.00
2023-03-27T05:06:03.540Z,47.00
2023-03-27T05:07:03.524Z,47.00
2023-03-27T05:08:03.514Z,47.00
2023-03-27T05:09:03.504Z,47.00
2023-03-27T05:10:03.498Z,47.00
2023-03-27T05:11:03.481Z,47.00
2023-03-27T05:12:03.482Z,47.00
2023-03-27T05:13:03.461Z,47.00
2023-03-27T05:14:03.454Z,46.91
2023-03-27T05:15:03.433Z,46.91
2023-03-27T05:16:03.451Z,46.91
2023-03-27T05:17:03.412Z,46.91
2023-03-27T05:18:03.448Z,46.91
2023-03-27T05:19:03.420Z,46.91
2023-03-27T05:20:03.440Z,46.91
2023-03-27T05:21:03.396Z,46.91
2023-03-27T05:22:03.368Z,46.91
2023-03-27T05:23:03.346Z,46.91
2023-03-27T05:24:03.354Z,46.91
2023-03-27T05:25:03.319Z,46.91
2023-03-27T05:26:03.327Z,46.91
2023-03-27T05:27:03.904Z,46.91
2023-03-27T05:28:03.312Z,46.91
2023-03-27T05:29:03.285Z,46.91
2023-03-27T05:30:03.270Z,46.91
2023-03-27T05:31:03.356Z,46.91
2023-03-27T05:32:03.255Z,46.91
2023-03-27T05:33:03.319Z,46.91
2023-03-27T05:34:03.230Z,46.81
2023-03-27T05:35:03.211Z,46.91
2023-03-27T05:36:03.265Z,46.81
2023-03-27T05:37:03.188Z,46.81
2023-03-27T05:38:03.193Z,46.81
2023-03-27T05:39:03.172Z,46.81
2023-03-27T05:40:03.163Z,46.81
2023-03-27T05:41:03.150Z,46.81
2023-03-27T05:42:03.146Z,46.81
2023-03-27T05:43:03.137Z,46.81
2023-03-27T05:44:03.122Z,46.81
2023-03-27T05:45:03.111Z,46.81
2023-03-27T05:46:03.140Z,46.81
2023-03-27T05:47:03.168Z,46.81
2023-03-27T05:48:03.106Z,46.81
2023-03-27T05:49:03.058Z,46.81
2023-03-27T05:50:03.064Z,46.81
2023-03-27T05:51:03.039Z,46.81
2023-03-27T05:52:03.031Z,46.81
2023-03-27T05:53:03.032Z,46.91
2023-03-27T05:54:03.006Z,46.81
2023-03-27T05:55:03.002Z,46.81
2023-03-27T05:56:03.688Z,46.81
2023-03-27T05:57:03.044Z,46.91
2023-03-27T05:58:02.989Z,46.81
2023-03-27T05:59:02.949Z,46.81
2023-03-27T06:00:02.952Z,46.91
2023-03-27T06:01:02.947Z,46.91
2023-03-27T06:02:02.978Z,46.81
2023-03-27T06:03:02.983Z,46.91
2023-03-27T06:04:03.053Z,46.81
2023-03-27T06:05:02.911Z,46.81
2023-03-27T06:06:02.923Z,46.91
2023-03-27T06:07:02.866Z,46.81
2023-03-27T06:08:02.859Z,46.91
2023-03-27T06:09:02.862Z,46.91
2023-03-27T06:10:02.848Z,46.91
2023-03-27T06:11:02.822Z,46.91
2023-03-27T06:12:02.858Z,46.91
2023-03-27T06:13:02.820Z,46.91
2023-03-27T06:14:02.807Z,46.91
2023-03-27T06:15:02.779Z,46.91
2023-03-27T06:16:02.796Z,46.81
2023-03-27T06:17:02.754Z,46.81
2023-03-27T06:18:02.806Z,46.91
2023-03-27T06:19:02.748Z,46.91
2023-03-27T06:20:02.744Z,46.81
2023-03-27T06:21:02.740Z,46.81
2023-03-27T06:22:02.710Z,46.91
2023-03-27T06:23:02.701Z,46.91
2023-03-27T06:24:02.686Z,46.91
2023-03-27T06:25:02.678Z,46.91
2023-03-27T06:26:02.706Z,46.91
2023-03-27T06:27:03.413Z,46.91
2023-03-27T06:28:02.649Z,46.91
2023-03-27T06:29:08.031Z,46.91
2023-03-27T06:30:02.661Z,46.91
2023-03-27T06:31:02.647Z,46.91
2023-03-27T06:32:02.632Z,46.91
2023-03-27T06:33:02.635Z,46.91
2023-03-27T06:34:02.578Z,46.91
2023-03-27T06:35:02.563Z,46.91
2023-03-27T06:36:02.589Z,46.91
2023-03-27T06:37:02.589Z,46.91
2023-03-27T06:38:02.548Z,46.91
2023-03-27T06:39:02.536Z,46.91
2023-03-27T06:40:02.533Z,46.91
2023-03-27T06:41:02.801Z,46.91
2023-03-27T06:42:02.521Z,46.91
2023-03-27T06:43:02.479Z,46.91
2023-03-27T06:44:02.474Z,46.91
2023-03-27T06:45:02.459Z,46.91
2023-03-27T06:46:02.502Z,46.91
2023-03-27T06:47:02.468Z,46.91
2023-03-27T06:48:14.580Z,46.91
2023-03-27T06:49:02.418Z,46.91
2023-03-27T06:50:02.419Z,46.91
2023-03-27T06:51:02.402Z,46.91
2023-03-27T06:52:02.353Z,46.91
2023-03-27T06:53:04.301Z,46.91
2023-03-27T06:54:02.313Z,46.91
2023-03-27T06:55:02.353Z,46.91
2023-03-27T06:56:02.351Z,46.91
2023-03-27T06:57:02.410Z,46.91
2023-03-27T06:58:02.325Z,46.91
2023-03-27T06:59:02.266Z,46.91
2023-03-27T07:00:02.749Z,46.91
2023-03-27T07:01:02.253Z,46.91
2023-03-27T07:02:02.317Z,46.91
2023-03-27T07:03:02.290Z,46.81
2023-03-27T07:04:02.231Z,46.91
2023-03-27T07:05:05.272Z,46.91
2023-03-27T07:06:02.239Z,46.91
2023-03-27T07:07:02.178Z,46.91
2023-03-27T07:08:14.797Z,46.91
2023-03-27T07:09:02.170Z,46.91
2023-03-27T07:10:02.218Z,46.91
2023-03-27T07:11:11.682Z,46.91
2023-03-27T07:12:02.128Z,46.91
2023-03-27T07:13:02.152Z,46.91
2023-03-27T07:14:02.149Z,46.91
2023-03-27T07:15:02.089Z,46.91
2023-03-27T07:16:02.163Z,46.91
2023-03-27T07:17:02.050Z,46.81
2023-03-27T07:18:02.052Z,46.91
2023-03-27T07:19:02.540Z,46.91
2023-03-27T07:20:02.026Z,46.91
2023-03-27T07:21:02.010Z,47.00
2023-03-27T07:22:02.011Z,46.91
2023-03-27T07:23:01.986Z,46.91
2023-03-27T07:24:01.997Z,46.70
2023-03-27T07:25:01.962Z,46.41
2023-03-27T07:26:01.953Z,46.11
2023-03-27T07:27:01.989Z,45.90
2023-03-27T07:28:03.695Z,45.40
2023-03-27T07:29:02.014Z,45.10
2023-03-27T07:30:01.943Z,44.90
2023-03-27T07:31:01.911Z,44.80
2023-03-27T07:32:06.305Z,44.80
2023-03-27T07:33:02.006Z,44.70
2023-03-27T07:34:02.182Z,44.32
2023-03-27T07:35:01.856Z,44.12
2023-03-27T07:36:01.875Z,44.02
2023-03-27T07:37:01.855Z,44.12
2023-03-27T07:38:01.828Z,43.82
2023-03-27T07:39:01.848Z,43.82
2023-03-27T07:40:01.818Z,43.82
2023-03-27T07:41:01.797Z,43.72
2023-03-27T07:42:01.797Z,43.52
2023-03-27T07:43:01.923Z,43.32
2023-03-27T07:44:01.793Z,43.22
2023-03-27T07:45:03.999Z,43.02
2023-03-27T07:46:01.770Z,42.82
2023-03-27T07:47:01.734Z,42.72
2023-03-27T07:48:01.820Z,42.60
2023-03-27T07:49:01.708Z,42.69
2023-03-27T07:50:01.701Z,42.40
2023-03-27T07:52:00.679Z,42.49
2023-03-27T07:53:01.693Z,42.49
2023-03-27T07:54:01.656Z,42.40
2023-03-27T07:55:01.674Z,42.40
2023-03-27T07:56:01.674Z,42.30
2023-03-27T07:57:01.696Z,42.30
2023-03-27T07:58:03.202Z,42.40
2023-03-27T07:59:01.668Z,42.40
2023-03-27T08:00:01.632Z,42.30
2023-03-27T08:01:01.587Z,42.30
2023-03-27T08:02:01.574Z,42.30
2023-03-27T08:03:01.788Z,42.30
2023-03-27T08:04:01.716Z,42.40
2023-03-27T08:05:01.638Z,42.30
2023-03-27T08:06:01.541Z,42.30
2023-03-27T08:07:01.513Z,42.40
2023-03-27T08:08:01.556Z,42.40
2023-03-27T08:09:22.501Z,42.40
2023-03-27T08:10:01.488Z,42.40
2023-03-27T08:11:01.479Z,42.49
2023-03-27T08:12:01.471Z,42.49
2023-03-27T08:13:01.503Z,42.49
2023-03-27T08:14:01.458Z,42.49
2023-03-27T08:15:01.426Z,42.60
2023-03-27T08:16:01.427Z,42.69
2023-03-27T08:17:14.494Z,42.60
2023-03-27T08:18:01.427Z,42.90
2023-03-27T08:19:01.493Z,42.90
2023-03-27T08:20:01.406Z,42.90
2023-03-27T08:21:01.375Z,42.99
2023-03-27T08:22:01.407Z,42.90
2023-03-27T08:23:01.362Z,42.99
2023-03-27T08:24:01.355Z,43.10
2023-03-27T08:25:07.791Z,43.10
2023-03-27T08:26:01.311Z,43.10
2023-03-27T08:27:01.862Z,43.10
2023-03-27T08:28:01.296Z,43.10
2023-03-27T08:29:01.341Z,43.19
2023-03-27T08:30:01.315Z,43.19
2023-03-27T08:31:02.916Z,43.30
2023-03-27T08:32:01.557Z,43.30
2023-03-27T08:33:01.256Z,43.40
2023-03-27T08:34:01.257Z,43.40
2023-03-27T08:35:01.278Z,43.40
2023-03-27T08:36:01.291Z,43.40
2023-03-27T08:37:01.259Z,43.40
2023-03-27T08:38:01.274Z,43.50
2023-03-27T08:39:01.233Z,43.50
2023-03-27T08:40:01.213Z,43.50
2023-03-27T08:41:01.202Z,43.50
2023-03-27T08:42:01.199Z,43.50
2023-03-27T08:43:01.196Z,43.50
2023-03-27T08:44:01.187Z,43.50
2023-03-27T08:45:01.165Z,43.60
2023-03-27T08:46:01.203Z,43.60
2023-03-27T08:47:01.133Z,43.60
2023-03-27T08:48:01.203Z,43.50
2023-03-27T08:49:01.117Z,43.70
2023-03-27T08:50:01.066Z,43.70
2023-03-27T08:51:01.090Z,43.60
2023-03-27T08:52:01.030Z,43.70
2023-03-27T08:53:01.091Z,43.70
2023-03-27T08:54:01.021Z,43.80
2023-03-27T08:55:01.003Z,43.80
2023-03-27T08:56:01.000Z,43.70
2023-03-27T08:57:01.021Z,43.80
2023-03-27T08:58:00.968Z,43.80
2023-03-27T08:59:00.947Z,43.80
2023-03-27T09:00:00.965Z,43.90
2023-03-27T09:01:00.946Z,43.70
2023-03-27T09:02:00.949Z,43.70
2023-03-27T09:03:01.004Z,43.70
2023-03-27T09:04:00.986Z,43.80
2023-03-27T09:05:00.893Z,43.90
2023-03-27T09:06:00.883Z,44.00
2023-03-27T09:07:00.927Z,43.70
2023-03-27T09:08:00.866Z,43.80
2023-03-27T09:09:00.870Z,43.90
2023-03-27T09:10:00.846Z,43.90
2023-03-27T09:11:00.829Z,43.90
2023-03-27T09:12:00.827Z,43.90
2023-03-27T09:13:00.818Z,43.90
2023-03-27T09:14:00.808Z,43.90
2023-03-27T09:15:00.793Z,44.00
2023-03-27T09:16:00.894Z,43.90
2023-03-27T09:17:00.831Z,43.90
2023-03-27T09:18:00.873Z,43.80
2023-03-27T09:19:00.804Z,43.90
2023-03-27T09:20:00.796Z,43.80
2023-03-27T09:21:00.727Z,43.90
2023-03-27T09:22:00.723Z,43.90
2023-03-27T09:23:00.706Z,43.90
2023-03-27T09:24:00.692Z,43.90
2023-03-27T09:25:00.674Z,43.90
2023-03-27T09:26:00.688Z,43.90
2023-03-27T09:27:07.241Z,43.90
2023-03-27T09:28:00.646Z,43.90
2023-03-27T09:29:00.647Z,43.90
2023-03-27T09:30:05.701Z,44.00
2023-03-27T09:31:00.704Z,44.00
2023-03-27T09:32:00.697Z,44.00
2023-03-27T09:33:00.665Z,44.00
2023-03-27T09:34:00.583Z,44.00
2023-03-27T09:35:00.576Z,44.00
2023-03-27T09:36:00.848Z,44.00
2023-03-27T09:37:00.555Z,44.00
2023-03-27T09:38:00.554Z,44.10
2023-03-27T09:39:00.532Z,44.10
2023-03-27T09:40:00.521Z,44.10
2023-03-27T09:41:00.514Z,44.10
2023-03-27T09:42:00.507Z,44.10
2023-03-27T09:43:00.566Z,44.10
2023-03-27T09:44:00.527Z,44.10
2023-03-27T09:45:00.511Z,44.10
2023-03-27T09:46:00.471Z,44.10
2023-03-27T09:47:00.486Z,44.20
2023-03-27T09:48:00.526Z,44.10
2023-03-27T09:49:00.462Z,44.10
2023-03-27T09:50:00.463Z,44.10
2023-03-27T09:51:00.473Z,44.20
2023-03-27T09:52:00.447Z,44.20
2023-03-27T09:53:00.431Z,44.20
2023-03-27T09:54:00.393Z,44.30
2023-03-27T09:55:00.366Z,44.30
2023-03-27T09:56:02.398Z,44.40
2023-03-27T09:57:00.418Z,44.40
2023-03-27T09:58:00.379Z,44.40
2023-03-27T09:59:00.380Z,44.40
2023-03-27T10:00:00.362Z,44.40
2023-03-27T10:01:00.321Z,44.40
2023-03-27T10:02:00.285Z,44.50
2023-03-27T10:03:00.537Z,44.50
2023-03-27T10:04:00.317Z,44.50
2023-03-27T10:05:00.324Z,44.50
2023-03-27T10:06:00.294Z,44.60
2023-03-27T10:07:00.357Z,44.60
2023-03-27T10:08:00.282Z,44.60
2023-03-27T10:09:00.255Z,44.60
2023-03-27T10:10:00.248Z,44.60
2023-03-27T10:11:00.252Z,44.60
2023-03-27T10:12:00.233Z,44.70
2023-03-27T10:13:00.223Z,44.68
2023-03-27T10:14:00.207Z,44.68
2023-03-27T10:15:01.700Z,44.68
2023-03-27T10:16:00.193Z,44.68
2023-03-27T10:17:00.229Z,44.68
2023-03-27T10:18:00.255Z,44.68
2023-03-27T10:19:00.164Z,44.68
2023-03-27T10:20:00.150Z,44.78
2023-03-27T10:21:00.097Z,44.78
2023-03-27T10:22:00.119Z,44.78
2023-03-27T10:23:00.327Z,44.78
2023-03-27T10:24:00.110Z,44.78
2023-03-27T10:25:00.117Z,44.78
2023-03-27T10:26:00.092Z,44.78
2023-03-27T10:27:00.908Z,44.88
2023-03-27T10:28:00.091Z,44.88
2023-03-27T10:29:00.054Z,44.88
2023-03-27T10:30:00.102Z,44.88
2023-03-27T10:31:00.019Z,44.88
2023-03-27T10:32:00.128Z,44.88
2023-03-27T10:33:00.008Z,42.77
2023-03-27T10:33:59.953Z,43.80
2023-03-27T10:34:59.921Z,44.20
2023-03-27T10:35:59.972Z,44.30
2023-03-27T10:36:59.912Z,44.20
2023-03-27T10:37:59.962Z,44.20
2023-03-27T10:38:59.941Z,44.20
2023-03-27T10:39:59.935Z,44.30
2023-03-27T10:40:59.910Z,44.30
2023-03-27T10:41:59.924Z,44.40
2023-03-27T10:42:59.906Z,44.40
2023-03-27T10:43:59.894Z,44.50
2023-03-27T10:44:59.868Z,44.50
2023-03-27T10:45:59.925Z,44.60
2023-03-27T10:46:59.928Z,44.58
2023-03-27T10:47:59.921Z,44.60
2023-03-27T10:48:59.854Z,44.58
2023-03-27T10:49:59.870Z,44.70
2023-03-27T10:50:59.837Z,44.38
2023-03-27T10:51:59.805Z,44.58
2023-03-27T10:52:59.827Z,44.70
2023-03-27T10:53:59.841Z,44.70
2023-03-27T10:54:59.772Z,44.58
2023-03-27T10:55:59.787Z,44.68
2023-03-27T10:56:59.799Z,44.78
2023-03-27T10:57:59.753Z,44.68
2023-03-27T10:58:59.733Z,44.68
2023-03-27T10:59:59.724Z,44.68
2023-03-27T11:01:00.126Z,44.78
2023-03-27T11:01:59.662Z,44.88
2023-03-27T11:02:59.646Z,44.78
2023-03-27T11:03:59.634Z,44.48
2023-03-27T11:04:59.614Z,44.78
2023-03-27T11:05:59.595Z,44.58
2023-03-27T11:07:00.424Z,44.98
2023-03-27T11:07:59.567Z,44.98
2023-03-27T11:08:59.562Z,45.28
2023-03-27T11:09:59.576Z,45.28
2023-03-27T11:10:59.582Z,45.28
2023-03-27T11:11:59.752Z,45.08
2023-03-27T11:12:59.525Z,44.48
2023-03-27T11:13:59.508Z,44.78
2023-03-27T11:14:59.493Z,45.28
2023-03-27T11:15:59.482Z,45.48
2023-03-27T11:16:59.539Z,45.26
2023-03-27T11:17:59.504Z,45.46
2023-03-27T11:18:59.478Z,45.56
2023-03-27T11:19:59.553Z,45.56
2023-03-27T11:20:59.486Z,45.76
2023-03-27T11:21:59.456Z,45.96
2023-03-27T11:22:59.410Z,46.06
2023-03-27T11:23:59.439Z,46.16
2023-03-27T11:24:59.393Z,46.14
2023-03-27T11:25:59.379Z,46.44
2023-03-27T11:26:59.443Z,46.54
2023-03-27T11:27:59.353Z,46.54
2023-03-27T11:28:59.546Z,46.64
2023-03-27T11:29:59.329Z,46.64
2023-03-27T11:30:59.577Z,46.94
2023-03-27T11:31:59.409Z,46.94
2023-03-27T11:32:59.379Z,47.24
2023-03-27T11:33:59.296Z,47.34
2023-03-27T11:35:00.448Z,47.52
2023-03-27T11:35:59.300Z,47.42
2023-03-27T11:36:59.261Z,47.61
2023-03-27T11:37:59.247Z,47.61
2023-03-27T11:38:59.238Z,47.81
2023-03-27T11:39:59.236Z,47.72
2023-03-27T11:40:59.452Z,48.02
2023-03-27T11:41:59.219Z,48.11
2023-03-27T11:42:59.196Z,48.11
2023-03-27T11:43:59.184Z,48.22
2023-03-27T11:44:59.184Z,48.42
2023-03-27T11:45:59.188Z,48.22
2023-03-27T11:46:59.161Z,48.22
2023-03-27T11:47:59.207Z,48.72
2023-03-27T11:48:59.137Z,48.52
2023-03-27T11:49:59.124Z,48.60
2023-03-27T11:50:59.356Z,48.60
2023-03-27T11:51:59.112Z,48.69
2023-03-27T11:52:59.101Z,48.49
2023-03-27T11:53:59.077Z,48.90
2023-03-27T11:54:59.072Z,49.09
2023-03-27T11:55:59.067Z,48.90
2023-03-27T11:56:59.095Z,49.19
2023-03-27T11:57:59.033Z,48.99
2023-03-27T11:58:59.034Z,49.19
2023-03-27T11:59:59.021Z,49.29
2023-03-27T12:00:59.020Z,49.29
2023-03-27T12:01:59.048Z,49.40
2023-03-27T12:02:59.067Z,49.79
2023-03-27T12:03:59.037Z,49.79
2023-03-27T12:04:58.963Z,49.90
2023-03-27T12:05:58.972Z,50.20
2023-03-27T12:07:04.213Z,49.79
2023-03-27T12:07:58.930Z,50.09
2023-03-27T12:08:58.925Z,49.90
2023-03-27T12:09:58.919Z,50.20
2023-03-27T12:10:59.180Z,50.29
2023-03-27T12:11:58.893Z,48.10
2023-03-27T12:12:58.887Z,45.69
2023-03-27T12:14:02.074Z,43.19
2023-03-27T12:14:58.879Z,40.99
2023-03-27T12:15:58.854Z,39.89
2023-03-27T12:16:59.456Z,38.81
2023-03-27T12:17:58.877Z,39.91
2023-03-27T12:19:05.833Z,42.32
2023-03-27T12:19:58.806Z,43.01
2023-03-27T12:20:58.860Z,42.41
2023-03-27T12:21:58.785Z,42.82
2023-03-27T12:22:58.796Z,43.71
2023-03-27T12:23:58.791Z,43.82
2023-03-27T12:24:59.937Z,44.12
2023-03-27T12:25:59.553Z,44.34
2023-03-27T12:26:58.729Z,44.43
2023-03-27T12:27:58.719Z,44.43
2023-03-27T12:28:58.728Z,44.42
2023-03-27T12:29:58.693Z,44.62
2023-03-27T12:30:58.973Z,44.82
2023-03-27T12:31:58.688Z,44.82
2023-03-27T12:33:00.112Z,45.01
2023-03-27T12:33:59.556Z,45.21
2023-03-27T12:34:58.646Z,45.31
2023-03-27T12:35:58.670Z,45.42
2023-03-27T12:36:58.616Z,45.42
2023-03-27T12:37:58.612Z,45.42
2023-03-27T12:38:58.604Z,45.31
2023-03-27T12:39:58.656Z,44.82
2023-03-27T12:40:58.768Z,43.51
2023-03-27T12:41:58.557Z,44.32
2023-03-27T12:42:58.573Z,44.32
2023-03-27T12:43:58.532Z,43.82
2023-03-27T12:45:00.024Z,43.01
2023-03-27T12:45:58.577Z,42.52
2023-03-27T12:46:58.561Z,42.41
2023-03-27T12:47:58.519Z,42.82
2023-03-27T12:48:58.507Z,42.52
2023-03-27T12:49:58.477Z,43.01
2023-03-27T12:50:58.661Z,43.12
2023-03-27T12:51:58.456Z,42.82
2023-03-27T12:52:58.455Z,43.01